Time;durP1;ratioP1;P1;durP2;ratioP2;P2;SDS_P1;SDS_P2;PMS_P1;PMS_P2;Temp;Humidity;BMP_temperature;BMP_pressure;BME280_temperature;BME280_humidity;BME280_pressure;Samples;Min_cycle;Max_cycle;Signal;HPM_P1;HPM_P2
2023/10/16 00:00:42;;;;;;;2.00;1.33;;;23.40;69.80;;;;;;5036255;28;20477;-84
2023/10/16 00:03:12;;;;;;;1.40;1.30;;;23.40;69.80;;;;;;5036428;28;20438;-84
2023/10/16 00:05:48;;;;;;;2.40;1.13;;;23.40;69.90;;;;;;5036179;28;20449;-84
2023/10/16 00:08:16;;;;;;;1.60;1.20;;;23.40;69.90;;;;;;5036333;28;20849;-84
2023/10/16 00:10:43;;;;;;;2.80;1.23;;;23.40;69.80;;;;;;5035336;28;20950;-84
2023/10/16 00:13:11;;;;;;;1.30;1.00;;;23.40;69.90;;;;;;5035817;28;20446;-84
2023/10/16 00:15:44;;;;;;;1.83;1.10;;;23.40;69.90;;;;;;5036047;28;20808;-84
2023/10/16 00:18:18;;;;;;;1.20;1.10;;;23.40;69.90;;;;;;5036195;28;20434;-84
2023/10/16 00:20:46;;;;;;;1.80;1.10;;;23.40;69.90;;;;;;5036059;28;20446;-84
2023/10/16 00:23:13;;;;;;;2.00;1.47;;;23.40;69.70;;;;;;5035982;28;20442;-84
2023/10/16 00:25:40;;;;;;;2.97;1.43;;;23.40;69.90;;;;;;5035952;28;20440;-84
2023/10/16 00:28:08;;;;;;;1.20;0.97;;;23.40;69.80;;;;;;5035793;28;20441;-84
2023/10/16 00:30:35;;;;;;;1.97;1.00;;;23.50;69.90;;;;;;5035553;28;20996;-84
2023/10/16 00:33:04;;;;;;;1.60;1.23;;;23.50;69.80;;;;;;5035555;28;20782;-84
2023/10/16 00:35:31;;;;;;;2.37;1.40;;;23.40;69.90;;;;;;5035722;28;20474;-84
2023/10/16 00:38:02;;;;;;;2.77;1.40;;;23.40;69.80;;;;;;5035704;28;20460;-84
2023/10/16 00:40:32;;;;;;;1.13;0.90;;;23.40;69.90;;;;;;5035705;28;20450;-84
2023/10/16 00:43:06;;;;;;;1.40;1.17;;;23.40;69.80;;;;;;5035697;28;20445;-84
2023/10/16 00:45:39;;;;;;;1.37;0.90;;;23.40;69.80;;;;;;5035485;28;20536;-84
2023/10/16 00:48:08;;;;;;;1.37;1.10;;;23.30;69.70;;;;;;5035585;28;20438;-84
2023/10/16 00:50:35;;;;;;;1.33;1.23;;;23.30;69.70;;;;;;5035408;28;20977;-84
2023/10/16 00:53:07;;;;;;;1.87;1.30;;;23.30;69.60;;;;;;5035233;28;20439;-84
2023/10/16 00:55:35;;;;;;;1.83;1.10;;;23.30;69.70;;;;;;5035371;28;20537;-84
2023/10/16 00:58:04;;;;;;;1.87;1.13;;;23.30;69.70;;;;;;5034884;28;20443;-84
2023/10/16 01:00:31;;;;;;;1.47;1.37;;;23.30;69.60;;;;;;5035187;28;20469;-84
2023/10/16 01:02:59;;;;;;;1.30;1.20;;;23.30;69.70;;;;;;5035180;28;20910;-84
2023/10/16 01:05:29;;;;;;;1.40;1.27;;;23.30;70.50;;;;;;5035147;28;20442;-84
2023/10/16 01:07:58;;;;;;;1.33;1.23;;;23.30;69.70;;;;;;5035102;28;20474;-84
2023/10/16 01:10:26;;;;;;;1.20;1.10;;;23.30;69.60;;;;;;5034873;28;20829;-84
2023/10/16 01:12:55;;;;;;;1.50;1.10;;;23.50;69.70;;;;;;5034916;28;20537;-84
2023/10/16 01:15:22;;;;;;;1.53;1.20;;;23.30;69.70;;;;;;5034959;28;20524;-85
2023/10/16 01:17:50;;;;;;;1.67;1.57;;;23.30;69.70;;;;;;5034821;28;20438;-84
2023/10/16 01:20:18;;;;;;;1.40;1.00;;;23.30;69.70;;;;;;5035032;28;20438;-84
2023/10/16 01:22:45;;;;;;;1.70;1.27;;;23.30;69.60;;;;;;5034749;28;20438;-84
2023/10/16 01:25:15;;;;;;;2.37;1.37;;;23.30;69.70;;;;;;5034753;28;20442;-84
2023/10/16 01:27:42;;;;;;;1.50;1.00;;;23.30;69.70;;;;;;5034751;28;20442;-84
2023/10/16 01:30:09;;;;;;;1.20;1.07;;;23.30;69.70;;;;;;5034146;28;20469;-83
2023/10/16 01:32:38;;;;;;;1.30;1.10;;;23.30;69.70;;;;;;5034586;28;20996;-84
2023/10/16 01:35:08;;;;;;;1.37;1.23;;;23.30;69.60;;;;;;5034668;28;21036;-84
2023/10/16 01:37:38;;;;;;;2.03;1.40;;;23.30;69.70;;;;;;5034837;28;20485;-85
2023/10/16 01:40:23;;;;;;;1.70;1.50;;;23.30;69.70;;;;;;5034478;28;20533;-84
2023/10/16 01:42:53;;;;;;;1.30;1.00;;;23.30;69.60;;;;;;5034486;28;20838;-84
2023/10/16 01:45:21;;;;;;;1.20;1.10;;;23.30;69.50;;;;;;5034360;28;20438;-84
2023/10/16 01:47:48;;;;;;;1.20;1.10;;;23.40;69.70;;;;;;5034396;28;20431;-84
2023/10/16 01:50:20;;;;;;;1.50;1.10;;;23.30;69.50;;;;;;5034128;28;20430;-84
2023/10/16 01:52:47;;;;;;;1.57;1.20;;;23.20;69.50;;;;;;5034307;28;20534;-84
2023/10/16 01:55:17;;;;;;;1.30;1.13;;;23.20;69.60;;;;;;5034208;28;20438;-84
2023/10/16 01:57:47;;;;;;;1.47;1.33;;;23.20;69.50;;;;;;5034294;28;20474;-84
2023/10/16 02:00:17;;;;;;;1.40;1.07;;;23.20;69.50;;;;;;5034060;28;20466;-84
2023/10/16 02:02:45;;;;;;;2.73;1.07;;;23.20;69.50;;;;;;5034068;28;20504;-84
2023/10/16 02:05:12;;;;;;;1.20;1.00;;;23.20;69.50;;;;;;5034107;28;20477;-84
2023/10/16 02:07:42;;;;;;;1.33;0.97;;;23.20;69.50;;;;;;5033873;28;20512;-84
2023/10/16 02:10:12;;;;;;;1.50;1.17;;;23.20;69.60;;;;;;5032890;28;20481;-84
2023/10/16 02:12:39;;;;;;;1.50;1.40;;;23.20;69.50;;;;;;5033667;28;20490;-84
2023/10/16 02:15:08;;;;;;;1.67;1.30;;;23.20;69.50;;;;;;5033781;28;20513;-84
2023/10/16 02:17:38;;;;;;;2.17;1.00;;;23.20;69.60;;;;;;5033911;28;20460;-84
2023/10/16 02:20:11;;;;;;;1.30;1.00;;;23.20;69.50;;;;;;5033769;28;20438;-84
2023/10/16 02:22:39;;;;;;;1.20;1.10;;;23.20;69.50;;;;;;5033710;28;20441;-84
2023/10/16 02:25:08;;;;;;;1.40;1.20;;;23.20;69.50;;;;;;5033671;28;20948;-84
2023/10/16 02:27:36;;;;;;;1.30;1.00;;;23.20;69.60;;;;;;5033721;28;20446;-84
2023/10/16 02:30:15;;;;;;;1.20;0.80;;;23.20;69.50;;;;;;5033355;28;20973;-84
2023/10/16 02:32:43;;;;;;;1.30;1.00;;;23.20;69.50;;;;;;5033501;28;20489;-84
2023/10/16 02:35:13;;;;;;;1.30;0.97;;;23.20;69.60;;;;;;5033525;28;20468;-84
2023/10/16 02:37:40;;;;;;;1.50;1.10;;;23.20;69.70;;;;;;5033430;28;20952;-84
2023/10/16 02:40:11;;;;;;;1.47;1.27;;;23.10;69.50;;;;;;5033370;28;20445;-84
2023/10/16 02:42:41;;;;;;;1.53;1.10;;;23.10;69.40;;;;;;5033423;28;20448;-84
2023/10/16 02:45:23;;;;;;;1.30;1.07;;;23.20;69.60;;;;;;5033356;28;20456;-84
2023/10/16 02:47:52;;;;;;;1.37;0.97;;;23.20;69.50;;;;;;5033480;28;20862;-84
2023/10/16 02:50:19;;;;;;;1.33;1.10;;;23.20;69.60;;;;;;5033296;28;20445;-84
2023/10/16 02:52:47;;;;;;;1.30;1.00;;;23.10;69.50;;;;;;5033233;28;20881;-83
2023/10/16 02:55:14;;;;;;;1.30;1.20;;;23.20;69.70;;;;;;5033235;28;20925;-84
2023/10/16 02:57:41;;;;;;;1.30;1.20;;;23.10;69.40;;;;;;5033250;28;20444;-84
2023/10/16 03:00:16;;;;;;;1.40;1.00;;;23.10;69.50;;;;;;5033151;28;20466;-84
2023/10/16 03:02:43;;;;;;;1.23;1.00;;;23.10;69.40;;;;;;5033130;28;20444;-83
2023/10/16 03:05:19;;;;;;;1.60;1.10;;;23.10;69.50;;;;;;5033201;28;20438;-84
2023/10/16 03:07:45;;;;;;;1.50;1.30;;;23.10;69.40;;;;;;5033165;28;20464;-84
2023/10/16 03:10:12;;;;;;;1.70;1.10;;;23.10;69.50;;;;;;5032679;28;20470;-83
2023/10/16 03:12:42;;;;;;;1.23;1.00;;;23.10;69.50;;;;;;5032902;28;20489;-84
2023/10/16 03:15:16;;;;;;;1.60;0.90;;;23.10;69.40;;;;;;5033033;28;20508;-84
2023/10/16 03:17:42;;;;;;;1.40;1.20;;;23.10;69.50;;;;;;5033120;28;20496;-84
2023/10/16 03:20:19;;;;;;;1.50;1.20;;;23.10;69.40;;;;;;5033546;28;20450;-84
2023/10/16 03:22:47;;;;;;;1.57;1.13;;;23.10;69.50;;;;;;5037172;28;20541;-84
2023/10/16 03:25:50;;;;;;;1.20;1.07;;;23.10;69.50;;;;;;5036965;28;20450;-84
2023/10/16 03:28:12;;;;;;;1.50;0.90;;;23.10;69.50;;;;;;5036834;28;20833;-84
2023/10/16 03:30:42;;;;;;;1.63;1.23;;;23.10;69.60;;;;;;5036727;28;20545;-83
2023/10/16 03:33:13;;;;;;;1.20;0.90;;;23.10;69.50;;;;;;5036737;28;20450;-84
2023/10/16 03:35:44;;;;;;;1.37;1.27;;;23.10;69.40;;;;;;5036905;28;20438;-84
2023/10/16 03:38:11;;;;;;;1.50;1.17;;;23.10;69.50;;;;;;5036819;28;20442;-84
2023/10/16 03:40:38;;;;;;;1.30;1.10;;;23.10;69.50;;;;;;5036812;28;20857;-84
2023/10/16 03:43:05;;;;;;;1.43;1.10;;;23.10;69.50;;;;;;5036605;28;20524;-84
2023/10/16 03:45:32;;;;;;;1.27;1.00;;;23.10;69.50;;;;;;5036343;28;20449;-84
2023/10/16 03:48:00;;;;;;;1.70;1.00;;;23.10;69.40;;;;;;5035746;28;20813;-84
2023/10/16 03:50:34;;;;;;;2.30;1.40;;;23.10;69.40;;;;;;5036075;28;20529;-84
2023/10/16 03:53:02;;;;;;;1.30;1.00;;;23.10;69.50;;;;;;5035719;28;20485;-83
2023/10/16 03:55:32;;;;;;;1.43;1.20;;;23.00;70.20;;;;;;5035083;28;20461;-84
2023/10/16 03:57:57;;;;;;;1.10;0.87;;;23.00;69.30;;;;;;5036425;28;20996;-84
2023/10/16 04:00:26;;;;;;;1.50;1.10;;;23.10;69.50;;;;;;5036408;28;20544;-84
2023/10/16 04:02:53;;;;;;;1.30;1.10;;;23.10;69.40;;;;;;5036324;28;20196;-83
2023/10/16 04:05:33;;;;;;;1.40;1.17;;;23.00;69.30;;;;;;5036452;28;20434;-84
2023/10/16 04:08:02;;;;;;;1.30;1.00;;;23.00;69.40;;;;;;5036280;28;20429;-84
2023/10/16 04:10:29;;;;;;;1.97;1.13;;;23.00;69.30;;;;;;5035821;28;20975;-85
2023/10/16 04:12:57;;;;;;;1.30;1.10;;;23.00;69.40;;;;;;5034981;28;20478;-84
2023/10/16 04:15:47;;;;;;;1.60;1.50;;;23.00;70.20;;;;;;5036142;28;20441;-84
2023/10/16 04:18:27;;;;;;;1.30;1.10;;;23.00;69.40;;;;;;5035850;28;20579;-84
2023/10/16 04:21:08;;;;;;;2.63;1.10;;;23.00;69.40;;;;;;5036170;28;20798;-84
2023/10/16 04:23:37;;;;;;;1.20;1.03;;;23.00;69.40;;;;;;5036018;28;20438;-84
2023/10/16 04:31:44;;;;;;;1.43;1.10;;;23.00;69.40;;;;;;5034328;28;20478;-83
2023/10/16 04:34:24;;;;;;;2.20;1.30;;;23.00;69.40;;;;;;5035766;28;20447;-83
2023/10/16 04:36:53;;;;;;;2.27;1.30;;;23.00;69.40;;;;;;5035960;28;20541;-83
2023/10/16 04:45:28;;;;;;;1.27;1.00;;;23.00;69.40;;;;;;4985096;28;20948;-84
2023/10/16 04:48:07;;;;;;;1.20;1.00;;;23.00;69.40;;;;;;5035728;28;20434;-84
2023/10/16 04:50:49;;;;;;;2.50;1.13;;;23.00;69.50;;;;;;5035450;28;20438;-84
2023/10/16 04:53:21;;;;;;;1.93;1.20;;;23.00;69.40;;;;;;5035275;28;20482;-84
2023/10/16 04:56:04;;;;;;;3.20;1.07;;;23.00;69.40;;;;;;5035332;28;20949;-84
2023/10/16 04:58:39;;;;;;;1.60;1.10;;;23.00;69.30;;;;;;5035335;28;20474;-83
2023/10/16 05:06:49;;;;;;;1.30;1.10;;;22.90;69.30;;;;;;5035376;28;20433;-83
2023/10/16 06:14:57;;;;;;;2.00;1.20;;;22.90;69.40;;;;;;5030635;28;20481;-83
2023/10/16 06:17:25;;;;;;;2.63;1.10;;;23.00;69.50;;;;;;5031463;28;20981;-83
2023/10/16 06:19:53;;;;;;;6.30;1.40;;;23.00;69.40;;;;;;5031481;28;20450;-83
2023/10/16 06:22:21;;;;;;;1.67;1.13;;;23.00;69.10;;;;;;5033103;28;20533;-83
2023/10/16 06:24:48;;;;;;;5.53;1.80;;;23.00;69.20;;;;;;5033696;28;20541;-83
2023/10/16 06:27:19;;;;;;;2.50;1.83;;;23.00;69.60;;;;;;5033746;28;20534;-83
2023/10/16 06:29:50;;;;;;;3.00;1.53;;;23.00;69.30;;;;;;5031824;28;20465;-83
2023/10/16 06:32:19;;;;;;;3.00;1.33;;;23.10;69.60;;;;;;5031930;28;20814;-82
2023/10/16 06:34:47;;;;;;;1.50;1.33;;;23.00;69.50;;;;;;5032351;28;20440;-83
2023/10/16 06:37:17;;;;;;;1.53;1.30;;;23.00;69.70;;;;;;5033450;28;20438;-87
2023/10/16 06:39:45;;;;;;;4.43;3.97;;;23.00;69.70;;;;;;5033401;28;20445;-87
2023/10/16 06:42:17;;;;;;;3.00;2.80;;;23.00;64.10;;;;;;5033419;28;20449;-87
2023/10/16 06:44:50;;;;;;;4.50;2.50;;;22.90;65.30;;;;;;5033571;28;20566;-86
2023/10/16 06:47:17;;;;;;;4.70;2.00;;;22.80;68.10;;;;;;5033086;28;20450;-86
2023/10/16 06:49:46;;;;;;;2.13;1.93;;;22.90;69.30;;;;;;5015816;28;20445;-86
2023/10/16 06:52:17;;;;;;;3.23;2.37;;;22.80;69.50;;;;;;5033257;28;20992;-89
2023/10/16 06:58:04;;;;;;;2.73;2.30;;;22.90;69.80;;;;;;5011247;28;20451;-89
2023/10/16 07:00:33;;;;;;;3.00;2.00;;;22.90;69.90;;;;;;5011198;28;20454;-90
2023/10/16 07:03:01;;;;;;;2.57;2.13;;;22.80;69.70;;;;;;5011686;28;20842;-88
2023/10/16 07:05:42;;;;;;;3.30;2.43;;;22.90;69.90;;;;;;5011083;28;20451;-86
2023/10/16 07:08:10;;;;;;;2.33;2.13;;;22.90;69.20;;;;;;5011255;28;20606;-87
2023/10/16 07:10:41;;;;;;;3.40;1.87;;;22.90;70.00;;;;;;5010288;28;20467;-86
2023/10/16 07:13:09;;;;;;;2.90;2.00;;;22.90;69.70;;;;;;5010761;28;20860;-88
2023/10/16 07:15:35;;;;;;;3.50;1.90;;;23.00;69.80;;;;;;5011066;28;20471;-86
2023/10/16 07:18:05;;;;;;;2.40;2.20;;;23.00;69.70;;;;;;5011127;28;20435;-85
2023/10/16 07:20:34;;;;;;;3.43;2.30;;;23.00;69.80;;;;;;5011246;28;20471;-86
2023/10/16 07:23:01;;;;;;;2.27;1.90;;;23.00;69.80;;;;;;5011023;28;20533;-86
2023/10/16 07:25:47;;;;;;;3.97;2.30;;;23.00;69.70;;;;;;5008001;28;20459;-92
2023/10/16 07:28:15;;;;;;;2.30;2.07;;;23.00;69.70;;;;;;5019077;28;20856;-86
2023/10/16 07:30:43;;;;;;;3.60;2.10;;;23.10;70.00;;;;;;5031623;28;20481;-87
2023/10/16 07:33:14;;;;;;;2.27;2.10;;;23.00;70.00;;;;;;5020528;28;20488;-86
2023/10/16 07:35:42;;;;;;;6.57;4.07;;;23.00;70.30;;;;;;5042580;28;20456;-86
2023/10/16 07:38:09;;;;;;;3.47;3.00;;;23.10;68.10;;;;;;5047011;28;20448;-90
2023/10/16 07:40:38;;;;;;;2.43;2.10;;;23.00;68.30;;;;;;5034926;28;20446;-91
2023/10/16 07:43:05;;;;;;;5.07;4.57;;;23.00;69.60;;;;;;5033095;28;20434;-91
2023/10/16 07:45:33;;;;;;;9.13;4.13;;;23.00;69.30;;;;;;5032958;28;20445;-89
2023/10/16 07:48:07;;;;;;;4.50;3.50;;;22.90;66.10;;;;;;5032558;28;20450;-92
2023/10/16 07:50:38;;;;;;;3.70;2.77;;;22.90;67.70;;;;;;5033154;28;20438;-89
2023/10/16 07:53:07;;;;;;;4.27;3.80;;;22.90;69.40;;;;;;5032870;28;20482;-88
2023/10/16 07:55:39;;;;;;;5.37;3.93;;;22.90;68.70;;;;;;5032738;28;20477;-88
2023/10/16 07:58:15;;;;;;;4.43;3.90;;;22.80;67.80;;;;;;5032954;28;20925;-89
2023/10/16 08:00:57;;;;;;;5.90;4.13;;;22.80;67.70;;;;;;5033102;28;20472;-89
2023/10/16 08:03:26;;;;;;;4.93;3.83;;;22.80;67.50;;;;;;5024256;28;21323;-86
2023/10/16 08:05:53;;;;;;;6.53;4.20;;;22.80;67.10;;;;;;5027356;28;20474;-87
2023/10/16 08:08:35;;;;;;;4.93;4.00;;;22.70;66.40;;;;;;5035313;28;20476;-87
2023/10/16 08:11:12;;;;;;;7.57;3.90;;;22.70;66.10;;;;;;5030432;28;20485;-89
2023/10/16 08:13:47;;;;;;;10.10;5.57;;;22.70;66.00;;;;;;5034512;28;20481;-88
2023/10/16 08:16:19;;;;;;;6.77;4.33;;;22.70;65.80;;;;;;5036193;28;20448;-88
2023/10/16 08:18:48;;;;;;;6.03;4.40;;;22.70;64.30;;;;;;5036127;28;20489;-85
2023/10/16 08:21:25;;;;;;;8.33;4.20;;;22.60;65.50;;;;;;5028347;28;20462;-87
2023/10/16 08:23:53;;;;;;;4.60;3.30;;;22.50;66.90;;;;;;5036294;28;20448;-87
2023/10/16 08:26:29;;;;;;;4.80;2.87;;;22.60;68.60;;;;;;5036174;28;20438;-88
2023/10/16 08:29:11;;;;;;;3.77;2.77;;;22.70;70.20;;;;;;5036490;28;20966;-86
2023/10/16 08:31:41;;;;;;;5.47;3.10;;;22.70;69.80;;;;;;5036163;28;20455;-87
2023/10/16 08:34:08;;;;;;;7.00;3.00;;;22.70;69.80;;;;;;5036112;28;20872;-87
2023/10/16 08:36:35;;;;;;;4.57;2.83;;;22.80;69.90;;;;;;5035869;28;20533;-86
2023/10/16 08:39:08;;;;;;;7.60;2.73;;;22.80;69.60;;;;;;5035806;28;20929;-85
2023/10/16 08:41:45;;;;;;;3.57;2.37;;;22.80;69.90;;;;;;5035350;28;20860;-90
2023/10/16 08:44:17;;;;;;;5.87;2.80;;;22.90;70.20;;;;;;5024748;28;20457;-88
2023/10/16 08:47:15;;;;;;;4.13;2.63;;;22.90;70.10;;;;;;5034845;28;20825;-88
2023/10/16 08:49:41;;;;;;;2.97;2.67;;;22.90;70.10;;;;;;5035472;28;20430;-89
2023/10/16 08:52:10;;;;;;;3.73;2.97;;;22.90;70.10;;;;;;5032801;28;20465;-86
2023/10/16 08:55:00;;;;;;;7.37;2.83;;;22.90;70.10;;;;;;5029587;28;20467;-88
2023/10/16 08:57:27;;;;;;;5.63;2.30;;;22.90;70.20;;;;;;5024709;28;20474;-89
2023/10/16 08:59:58;;;;;;;6.00;2.87;;;22.90;70.00;;;;;;5026105;28;20505;-87
2023/10/16 09:02:27;;;;;;;4.30;2.63;;;22.90;70.00;;;;;;5032958;28;20796;-86
2023/10/16 09:04:56;;;;;;;2.40;2.20;;;23.00;70.00;;;;;;5035079;28;20447;-87
2023/10/16 09:07:25;;;;;;;3.70;2.17;;;23.10;70.00;;;;;;5034952;28;20926;-86
2023/10/16 09:09:53;;;;;;;3.17;2.47;;;23.00;69.80;;;;;;5034635;28;20531;-88
2023/10/16 09:12:26;;;;;;;2.50;2.30;;;23.00;70.70;;;;;;5034812;28;20474;-87
2023/10/16 09:14:53;;;;;;;4.07;2.40;;;23.00;69.70;;;;;;5034956;28;20442;-89
2023/10/16 09:17:25;;;;;;;2.60;2.40;;;23.00;69.70;;;;;;5034413;28;20445;-87
2023/10/16 09:19:53;;;;;;;3.10;2.73;;;23.00;69.60;;;;;;5033757;28;20940;-84
2023/10/16 09:22:23;;;;;;;3.23;2.30;;;23.00;69.60;;;;;;5033745;28;20541;-85
2023/10/16 09:24:51;;;;;;;3.40;2.30;;;23.10;69.60;;;;;;5032614;28;20446;-85
2023/10/16 09:27:22;;;;;;;3.50;2.60;;;23.10;69.70;;;;;;5032985;28;20445;-85
2023/10/16 09:29:53;;;;;;;3.73;2.37;;;23.10;69.90;;;;;;5033058;28;20470;-86
2023/10/16 09:32:27;;;;;;;2.40;2.20;;;23.00;69.70;;;;;;5033104;28;20957;-87
2023/10/16 09:34:57;;;;;;;2.70;1.83;;;23.00;69.60;;;;;;5033520;28;20458;-85
2023/10/16 09:37:29;;;;;;;4.70;2.43;;;23.00;69.20;;;;;;5033685;28;20980;-86
2023/10/16 09:40:00;;;;;;;5.80;2.40;;;23.10;69.30;;;;;;5033832;28;20458;-89
2023/10/16 09:42:28;;;;;;;3.40;2.77;;;23.10;70.30;;;;;;5034014;28;20537;-87
2023/10/16 09:44:59;;;;;;;3.43;2.37;;;23.20;69.70;;;;;;5034209;28;20435;-87
2023/10/16 09:47:27;;;;;;;2.77;2.27;;;23.10;69.70;;;;;;5033300;28;20445;-87
2023/10/16 09:49:56;;;;;;;2.40;2.10;;;23.10;69.50;;;;;;5034252;28;20949;-87
2023/10/16 09:52:23;;;;;;;7.57;2.97;;;23.30;69.00;;;;;;5033618;28;20450;-91
2023/10/16 09:54:51;;;;;;;4.77;2.53;;;23.60;68.70;;;;;;5031377;28;20556;-89
2023/10/16 09:57:22;;;;;;;3.07;2.20;;;23.80;68.20;;;;;;5026199;28;20561;-90
2023/10/16 09:59:59;;;;;;;4.50;2.10;;;24.00;67.70;;;;;;5029401;28;21000;-90
2023/10/16 10:02:35;;;;;;;1.90;1.80;;;24.10;67.20;;;;;;5020328;28;20457;-91
2023/10/16 10:05:09;;;;;;;2.53;2.20;;;24.20;67.00;;;;;;5020981;28;20509;-88
2023/10/16 10:07:47;;;;;;;2.13;1.90;;;24.30;66.40;;;;;;5019602;28;20501;-92
2023/10/16 10:13:08;;;;;;;3.00;2.23;;;24.40;66.60;;;;;;4997185;28;20470;-89
2023/10/16 10:15:38;;;;;;;5.63;1.97;;;24.40;66.20;;;;;;5018496;28;20832;-91
2023/10/16 10:20:58;;;;;;;2.20;1.87;;;24.30;67.30;;;;;;5032384;28;20434;-92
2023/10/16 10:23:25;;;;;;;2.17;1.90;;;24.30;67.40;;;;;;5033744;28;20470;-91
2023/10/16 10:25:53;;;;;;;2.20;2.00;;;24.30;67.50;;;;;;5033610;28;20446;-91
2023/10/16 10:28:25;;;;;;;6.70;2.00;;;24.30;67.80;;;;;;5033742;28;20442;-91
2023/10/16 10:31:02;;;;;;;6.83;2.03;;;24.20;67.80;;;;;;5033155;28;20541;-90
2023/10/16 10:33:42;;;;;;;2.47;1.90;;;24.30;68.00;;;;;;5033696;28;20540;-91
2023/10/16 10:36:33;;;;;;;2.80;1.87;;;24.20;68.10;;;;;;5033574;28;20453;-91
2023/10/16 10:39:46;;;;;;;2.33;1.83;;;24.20;68.40;;;;;;5033496;28;20450;-89
2023/10/16 10:42:23;;;;;;;3.43;2.37;;;24.20;68.60;;;;;;5031385;28;20545;-90
2023/10/16 10:45:17;;;;;;;5.43;2.57;;;24.20;68.60;;;;;;5028480;28;20531;-90
2023/10/16 10:47:44;;;;;;;1.80;1.70;;;24.20;68.70;;;;;;5013151;28;20538;-91
2023/10/16 10:50:14;;;;;;;2.17;1.77;;;24.20;68.90;;;;;;5013772;28;20447;-90
2023/10/16 10:52:41;;;;;;;4.80;1.97;;;24.20;68.90;;;;;;5013663;28;20875;-90
2023/10/16 10:55:18;;;;;;;5.40;2.27;;;24.20;68.90;;;;;;5013643;28;20450;-90
2023/10/16 10:57:47;;;;;;;2.90;1.70;;;24.20;68.80;;;;;;5023770;28;20545;-90
2023/10/16 11:00:43;;;;;;;5.50;1.90;;;24.20;68.80;;;;;;5031273;28;20462;-90
2023/10/16 11:03:11;;;;;;;1.73;1.50;;;24.20;68.80;;;;;;5031881;28;20513;-90
2023/10/16 11:05:45;;;;;;;2.43;1.80;;;24.20;69.00;;;;;;5031997;28;20512;-90
2023/10/16 11:08:25;;;;;;;2.63;2.13;;;24.20;69.00;;;;;;5031928;28;20481;-90
2023/10/16 11:10:53;;;;;;;2.17;1.97;;;24.20;69.00;;;;;;5031960;28;20469;-90
2023/10/16 11:13:21;;;;;;;2.37;2.00;;;24.20;69.00;;;;;;5032286;28;20484;-90
2023/10/16 11:15:52;;;;;;;3.47;1.90;;;24.20;69.00;;;;;;5033079;28;20508;-90
2023/10/16 11:18:19;;;;;;;1.83;1.73;;;24.20;69.00;;;;;;5033047;28;21016;-90
2023/10/16 11:20:49;;;;;;;4.27;2.00;;;24.20;69.10;;;;;;5033148;28;20446;-90
2023/10/16 11:23:17;;;;;;;2.80;1.77;;;24.20;68.90;;;;;;5033047;28;20874;-90
2023/10/16 11:25:47;;;;;;;2.43;1.73;;;24.20;69.10;;;;;;5033156;28;20480;-90
2023/10/16 11:28:20;;;;;;;1.63;1.50;;;24.20;69.20;;;;;;5032983;28;20790;-90
2023/10/16 11:30:49;;;;;;;2.83;1.60;;;24.20;69.30;;;;;;5033109;28;20463;-91
2023/10/16 11:33:25;;;;;;;2.27;2.07;;;24.20;69.20;;;;;;5032857;28;20560;-90
2023/10/16 11:35:54;;;;;;;2.23;2.00;;;24.20;69.20;;;;;;5032915;28;20442;-90
2023/10/16 11:38:28;;;;;;;3.13;1.67;;;24.20;69.20;;;;;;5033178;28;20783;-90
2023/10/16 11:40:55;;;;;;;2.00;1.80;;;24.20;69.20;;;;;;5033422;28;20789;-90
2023/10/16 11:43:22;;;;;;;1.50;1.30;;;24.20;69.00;;;;;;5036613;28;20453;-90
2023/10/16 11:45:53;;;;;;;2.47;1.63;;;24.20;69.00;;;;;;5035613;28;21008;-90
2023/10/16 11:51:10;;;;;;;2.57;1.97;;;24.10;69.00;;;;;;5035387;28;20504;-90
2023/10/16 11:53:37;;;;;;;2.90;1.57;;;24.10;68.60;;;;;;5016923;28;20486;-90
2023/10/16 11:56:08;;;;;;;4.97;1.77;;;24.10;69.00;;;;;;5016822;28;20443;-90
2023/10/16 11:58:35;;;;;;;2.53;1.70;;;24.10;69.00;;;;;;5016792;28;20451;-90
2023/10/16 12:01:09;;;;;;;2.67;1.37;;;24.10;68.80;;;;;;5016610;28;20539;-90
2023/10/16 12:03:37;;;;;;;2.20;1.70;;;24.10;69.00;;;;;;5015480;28;20447;-90
2023/10/16 12:06:08;;;;;;;2.30;1.80;;;24.10;68.90;;;;;;5015032;28;20447;-90
2023/10/16 12:08:37;;;;;;;2.00;1.80;;;24.10;68.90;;;;;;5015110;28;20446;-90
2023/10/16 12:11:04;;;;;;;1.60;1.40;;;24.10;69.10;;;;;;5014747;28;20469;-90
2023/10/16 12:13:31;;;;;;;2.90;1.63;;;24.10;69.00;;;;;;5015182;28;20522;-90
2023/10/16 12:15:59;;;;;;;1.50;1.40;;;24.10;68.80;;;;;;5015542;28;20447;-90
2023/10/16 12:18:28;;;;;;;1.93;1.37;;;24.10;68.90;;;;;;5015901;28;20430;-90
2023/10/16 12:20:59;;;;;;;1.80;1.37;;;24.00;68.50;;;;;;5016259;28;20534;-90
2023/10/16 12:23:27;;;;;;;2.43;1.70;;;24.00;68.40;;;;;;5016769;28;20446;-90
2023/10/16 12:25:54;;;;;;;2.10;1.50;;;24.00;68.30;;;;;;5016347;28;20443;-90
2023/10/16 12:28:21;;;;;;;1.40;1.30;;;24.00;68.60;;;;;;5016108;28;20478;-90
2023/10/16 12:30:48;;;;;;;1.90;1.60;;;24.00;68.70;;;;;;5018692;28;20442;-90
2023/10/16 12:33:15;;;;;;;2.50;1.73;;;24.00;70.00;;;;;;5044048;28;20441;-90
2023/10/16 12:35:42;;;;;;;3.63;1.60;;;24.00;69.30;;;;;;5034680;28;20446;-90
2023/10/16 12:38:10;;;;;;;3.07;1.67;;;24.00;69.70;;;;;;5035436;28;20450;-90
2023/10/16 12:40:38;;;;;;;3.00;1.90;;;24.00;69.50;;;;;;5035384;28;20470;-85
2023/10/16 12:43:06;;;;;;;1.43;1.30;;;24.10;70.40;;;;;;5034926;28;20449;-85
2023/10/16 12:45:34;;;;;;;4.90;1.40;;;24.00;70.40;;;;;;5035266;28;20446;-85
2023/10/16 12:48:01;;;;;;;2.70;1.73;;;24.10;70.50;;;;;;5035121;28;21021;-85
2023/10/16 12:50:29;;;;;;;8.57;1.80;;;24.10;70.50;;;;;;5035451;28;20529;-85
2023/10/16 12:52:59;;;;;;;1.93;1.37;;;24.10;70.60;;;;;;5033145;28;20442;-92
2023/10/16 12:55:26;;;;;;;2.73;1.40;;;24.10;70.50;;;;;;5033947;28;20496;-88
2023/10/16 12:57:55;;;;;;;4.80;1.73;;;24.10;69.10;;;;;;5034445;28;20498;-85
2023/10/16 13:00:23;;;;;;;2.93;1.50;;;24.10;70.50;;;;;;5033007;28;20826;-86
2023/10/16 13:02:52;;;;;;;5.90;1.57;;;24.10;70.40;;;;;;5034564;28;20477;-85
2023/10/16 13:05:24;;;;;;;1.40;1.20;;;24.10;70.50;;;;;;5034973;28;20453;-85
2023/10/16 13:07:52;;;;;;;3.47;1.40;;;24.10;70.50;;;;;;5034535;28;20441;-86
2023/10/16 13:10:20;;;;;;;4.70;1.67;;;24.20;70.40;;;;;;5034102;28;20473;-86
2023/10/16 13:12:47;;;;;;;3.83;1.87;;;24.20;70.40;;;;;;5034576;28;20435;-86
2023/10/16 13:15:24;;;;;;;3.07;1.53;;;24.20;70.40;;;;;;5035191;28;20508;-87
2023/10/16 13:17:52;;;;;;;1.70;1.33;;;24.20;70.40;;;;;;5035063;28;20503;-88
2023/10/16 13:20:19;;;;;;;4.50;1.80;;;24.20;70.20;;;;;;5033778;28;20552;-88
2023/10/16 13:22:49;;;;;;;2.47;1.80;;;24.20;69.60;;;;;;5033771;28;20446;-88
2023/10/16 13:25:17;;;;;;;1.50;1.40;;;24.20;68.80;;;;;;5034020;28;20454;-88
2023/10/16 13:27:44;;;;;;;5.30;1.60;;;24.20;68.50;;;;;;5033831;28;20451;-88
2023/10/16 13:30:16;;;;;;;1.93;1.23;;;24.10;68.30;;;;;;5040931;28;20466;-87
2023/10/16 13:32:46;;;;;;;3.83;1.20;;;24.10;68.50;;;;;;5033727;28;20458;-88
2023/10/16 13:35:13;;;;;;;2.10;1.40;;;24.10;68.50;;;;;;5034312;28;20482;-88
2023/10/16 13:37:42;;;;;;;1.87;1.63;;;24.10;68.30;;;;;;5034653;28;20444;-88
2023/10/16 13:40:15;;;;;;;3.83;1.77;;;24.00;67.90;;;;;;5034636;28;20573;-88
2023/10/16 13:42:43;;;;;;;5.73;1.67;;;24.10;68.00;;;;;;5034500;28;20442;-88
2023/10/16 13:45:13;;;;;;;6.07;1.50;;;24.00;67.60;;;;;;5034697;28;20481;-88
2023/10/16 13:47:43;;;;;;;1.83;1.50;;;24.00;68.00;;;;;;5034404;28;20449;-87
2023/10/16 13:50:10;;;;;;;5.00;1.60;;;24.00;69.50;;;;;;5034230;28;20454;-85
2023/10/16 13:52:37;;;;;;;3.23;1.40;;;24.00;70.60;;;;;;5034218;28;20537;-86
2023/10/16 13:55:12;;;;;;;6.00;2.40;;;24.00;70.60;;;;;;5034308;28;20886;-86
2023/10/16 13:57:42;;;;;;;6.83;1.80;;;23.90;65.40;;;;;;5034329;28;20433;-85
2023/10/16 14:00:10;;;;;;;3.73;1.50;;;23.90;67.60;;;;;;5034209;28;20985;-86
2023/10/16 14:02:37;;;;;;;2.90;1.60;;;23.90;69.90;;;;;;5034180;28;20465;-86
2023/10/16 14:05:06;;;;;;;3.83;1.40;;;23.90;69.80;;;;;;5033312;28;20804;-85
2023/10/16 14:07:33;;;;;;;1.60;1.27;;;23.90;69.70;;;;;;5034115;28;20442;-85
2023/10/16 14:10:02;;;;;;;2.00;1.80;;;23.90;69.70;;;;;;5033961;28;20475;-86
2023/10/16 14:12:37;;;;;;;2.60;1.17;;;23.90;69.80;;;;;;5034178;28;20541;-85
2023/10/16 14:15:04;;;;;;;3.97;1.67;;;23.90;69.80;;;;;;5034118;28;20575;-85
2023/10/16 14:17:37;;;;;;;3.50;1.60;;;23.90;69.80;;;;;;5033896;28;20434;-86
2023/10/16 14:20:11;;;;;;;1.60;1.30;;;23.90;69.80;;;;;;5033894;28;20852;-90
2023/10/16 14:22:52;;;;;;;3.50;1.83;;;23.90;69.80;;;;;;5034396;28;20464;-93
2023/10/16 14:25:19;;;;;;;3.27;1.73;;;24.00;69.10;;;;;;5034649;28;20436;-87
2023/10/16 14:27:46;;;;;;;1.90;1.30;;;23.90;68.70;;;;;;5034832;28;20991;-87
2023/10/16 14:30:17;;;;;;;2.33;1.70;;;23.90;68.00;;;;;;5035106;28;20471;-87
2023/10/16 14:32:46;;;;;;;2.00;1.30;;;23.80;67.80;;;;;;5034959;28;20453;-87
2023/10/16 14:35:15;;;;;;;2.20;1.23;;;23.80;67.70;;;;;;5035154;28;20845;-88
2023/10/16 14:37:42;;;;;;;2.10;1.43;;;23.80;67.60;;;;;;5035097;28;20438;-88
2023/10/16 14:40:15;;;;;;;2.67;1.30;;;23.80;67.60;;;;;;5034913;28;20438;-87